Time,TemperatureF,DewpointF,PressureIn,WindDirection,WindDirectionDegrees,WindSpeedMPH,WindSpeedGustMPH,Humidity,HourlyPrecipIn,Conditions,Clouds,dailyrainin,SoftwareType,DateUTC
2013-07-03 00:02:00,60.0,58.0,30.16,NE,36,0.0,-999.0,94,-99.99,,,-99.99,,2013-07-03 04:02:00,
2013-07-03 00:11:00,60.0,58.0,30.16,NE,36,0.0,-999.0,94,-99.99,,,-99.99,,2013-07-03 04:11:00,
2013-07-03 00:22:00,60.0,58.0,30.16,NE,40,1.0,-999.0,94,-99.99,,,-99.99,,2013-07-03 04:22:00,
2013-07-03 00:34:00,60.0,58.0,30.16,North,5,1.0,-999.0,94,-99.99,,,-99.99,,2013-07-03 04:34:00,
2013-07-03 00:43:00,60.0,59.0,30.16,North,11,1.0,-999.0,95,-99.99,,,-99.99,,2013-07-03 04:43:00,
2013-07-03 00:52:00,60.0,59.0,30.16,North,11,1.0,-999.0,95,-99.99,,,-99.99,,2013-07-03 04:52:00,
2013-07-03 01:02:00,60.0,59.0,30.16,NNE,19,0.0,-999.0,95,-99.99,,,-99.99,,2013-07-03 05:02:00,
2013-07-03 01:11:00,60.0,59.0,30.16,NNE,19,0.0,-999.0,95,-99.99,,,-99.99,,2013-07-03 05:11:00,
2013-07-03 01:23:00,60.0,59.0,30.16,NNE,28,0.0,-999.0,95,-99.99,,,-99.99,,2013-07-03 05:23:00,
2013-07-03 01:39:00,60.0,59.0,30.15,NE,34,0.0,-999.0,95,-99.99,,,-99.99,,2013-07-03 05:39:00,
2013-07-03 01:48:00,60.0,59.0,30.15,NNE,32,0.0,-999.0,95,-99.99,,,-99.99,,2013-07-03 05:48:00,
2013-07-03 01:57:00,60.0,59.0,30.15,NNE,32,0.0,-999.0,95,-99.99,,,-99.99,,2013-07-03 05:57:00,
2013-07-03 02:08:00,60.0,59.0,30.15,NNE,12,1.0,-999.0,95,-99.99,,,-99.99,,2013-07-03 06:08:00,
2013-07-03 02:15:00,60.0,59.0,30.15,NNE,13,0.0,-999.0,95,-99.99,,,-99.99,,2013-07-03 06:15:00,
2013-07-03 02:39:00,60.0,59.0,30.14,NNE,13,0.0,-999.0,95,-99.99,,,-99.99,,2013-07-03 06:39:00,
2013-07-03 02:50:00,60.0,59.0,30.14,NNE,13,0.0,-999.0,95,-99.99,,,-99.99,,2013-07-03 06:50:00,
2013-07-03 02:56:00,60.0,59.0,30.14,NNE,13,0.0,-999.0,95,-99.99,,,-99.99,,2013-07-03 06:56:00,
2013-07-03 03:07:00,60.0,59.0,30.14,NNE,13,0.0,-999.0,95,-99.99,,,-99.99,,2013-07-03 07:07:00,
2013-07-03 03:28:00,60.0,59.0,30.14,NNE,13,0.0,-999.0,95,-99.99,,,-99.99,,2013-07-03 07:28:00,
2013-07-03 03:39:00,60.0,59.0,30.14,NNE,12,0.0,-999.0,95,-99.99,,,-99.99,,2013-07-03 07:39:00,
2013-07-03 03:47:00,60.0,59.0,30.14,NNE,12,0.0,-999.0,95,-99.99,,,-99.99,,2013-07-03 07:47:00,
2013-07-03 03:58:00,60.0,59.0,30.14,NNE,12,0.0,-999.0,95,-99.99,,,-99.99,,2013-07-03 07:58:00,
2013-07-03 04:11:00,60.0,59.0,30.14,NNE,12,0.0,-999.0,95,-99.99,,,-99.99,,2013-07-03 08:11:00,
2013-07-03 04:16:00,60.0,59.0,30.14,NNE,12,0.0,-999.0,95,-99.99,,,-99.99,,2013-07-03 08:16:00,
2013-07-03 04:25:00,60.0,59.0,30.13,NNE,12,0.0,-999.0,95,-99.99,,,-99.99,,2013-07-03 08:25:00,
2013-07-03 04:38:00,60.0,59.0,30.13,NNE,12,0.0,-999.0,95,-99.99,,,-99.99,,2013-07-03 08:38:00,
2013-07-03 05:08:00,60.0,59.0,30.13,NNE,12,0.0,-999.0,95,-99.99,,,-99.99,,2013-07-03 09:08:00,
2013-07-03 05:39:00,61.0,60.0,30.12,NNE,16,0.0,-999.0,95,-99.99,,,-99.99,,2013-07-03 09:39:00,
2013-07-03 05:57:00,61.0,60.0,30.12,NNE,16,0.0,-999.0,96,-99.99,,,-99.99,,2013-07-03 09:57:00,
2013-07-03 06:06:00,61.0,60.0,30.14,NNE,15,0.0,-999.0,95,-99.99,,,-99.99,,2013-07-03 10:06:00,
2013-07-03 06:28:00,61.0,60.0,30.14,NNE,16,0.0,-999.0,95,-99.99,,,-99.99,,2013-07-03 10:28:00,
2013-07-03 06:37:00,61.0,60.0,30.14,NNE,16,0.0,-999.0,96,-99.99,,,-99.99,,2013-07-03 10:37:00,
2013-07-03 06:45:00,62.0,61.0,30.14,NNE,16,0.0,-999.0,96,-99.99,,,-99.99,,2013-07-03 10:45:00,
2013-07-03 06:55:00,62.0,61.0,30.14,NNE,16,0.0,-999.0,96,-99.99,,,-99.99,,2013-07-03 10:55:00,
2013-07-03 07:06:00,62.0,61.0,30.14,NNE,16,0.0,-999.0,96,-99.99,,,-99.99,,2013-07-03 11:06:00,
2013-07-03 07:16:00,62.0,61.0,30.14,NNE,16,0.0,-999.0,96,-99.99,,,-99.99,,2013-07-03 11:16:00,
2013-07-03 07:26:00,63.0,62.0,30.16,NNE,15,0.0,-999.0,96,-99.99,,,-99.99,,2013-07-03 11:26:00,
2013-07-03 07:54:00,65.0,64.0,30.15,North,5,0.0,-999.0,96,-99.99,,,-99.99,,2013-07-03 11:54:00,
2013-07-03 08:08:00,67.0,66.0,30.15,North,9,0.0,-999.0,96,-99.99,,,-99.99,,2013-07-03 12:08:00,
2013-07-03 08:16:00,67.0,66.0,30.15,North,9,0.0,-999.0,96,-99.99,,,-99.99,,2013-07-03 12:16:00,
2013-07-03 08:26:00,70.0,68.0,30.15,NNE,24,0.0,-999.0,95,-99.99,,,-99.99,,2013-07-03 12:26:00,
2013-07-03 08:37:00,72.0,69.0,30.15,South,184,0.0,-999.0,90,-99.99,,,-99.99,,2013-07-03 12:37:00,
2013-07-03 08:44:00,72.0,69.0,30.15,South,184,0.0,-999.0,90,-99.99,,,-99.99,,2013-07-03 12:44:00,
2013-07-03 08:57:00,74.0,69.0,30.15,SSW,200,0.0,-999.0,84,-99.99,,,-99.99,,2013-07-03 12:57:00,
2013-07-03 09:08:00,76.0,70.0,30.15,SSW,198,0.0,-999.0,81,-99.99,,,-99.99,,2013-07-03 13:08:00,
2013-07-03 09:17:00,76.0,70.0,30.15,SSW,198,0.0,-999.0,81,-99.99,,,-99.99,,2013-07-03 13:17:00,
2013-07-03 09:47:00,80.0,72.0,30.15,WSW,239,0.0,-999.0,77,-99.99,,,-99.99,,2013-07-03 13:47:00,
2013-07-03 10:15:00,82.0,72.0,30.15,WSW,246,2.0,-999.0,73,-99.99,,,-99.99,,2013-07-03 14:15:00,
2013-07-03 11:06:00,83.0,72.0,30.16,SSW,198,1.0,-999.0,69,-99.99,,,-99.99,,2013-07-03 15:06:00,
2013-07-03 11:26:00,82.0,71.0,30.16,West,262,1.0,-999.0,70,-99.99,,,-99.99,,2013-07-03 15:26:00,
2013-07-03 11:37:00,81.0,71.0,30.16,SW,236,1.0,-999.0,71,-99.99,,,-99.99,,2013-07-03 15:37:00,
2013-07-03 11:47:00,82.0,72.0,30.16,WNW,301,1.0,-999.0,72,-99.99,,,-99.99,,2013-07-03 15:47:00,
2013-07-03 11:56:00,82.0,72.0,30.16,WNW,301,1.0,-999.0,72,-99.99,,,-99.99,,2013-07-03 15:56:00,
2013-07-03 12:07:00,82.0,72.0,30.16,SSE,148,0.0,-999.0,71,-99.99,,,-99.99,,2013-07-03 16:07:00,
2013-07-03 12:24:00,83.0,72.0,30.15,SW,217,1.0,-999.0,70,-99.99,,,-99.99,,2013-07-03 16:24:00,
2013-07-03 12:40:00,84.0,72.0,30.15,West,274,2.0,-999.0,68,-99.99,,,-99.99,,2013-07-03 16:40:00,
2013-07-03 12:56:00,86.0,73.0,30.15,NW,319,1.0,-999.0,65,-99.99,,,-99.99,,2013-07-03 16:56:00,
2013-07-03 13:26:00,88.0,73.0,30.14,SW,225,1.0,-999.0,62,-99.99,,,-99.99,,2013-07-03 17:26:00,
2013-07-03 13:41:00,88.0,74.0,30.14,West,273,1.0,-999.0,63,-99.99,,,-99.99,,2013-07-03 17:41:00,
2013-07-03 13:53:00,88.0,73.0,30.13,WSW,254,3.0,-999.0,61,-99.99,,,-99.99,,2013-07-03 17:53:00,
2013-07-03 14:08:00,88.0,72.0,30.13,WNW,286,2.0,-999.0,60,-99.99,,,-99.99,,2013-07-03 18:08:00,
2013-07-03 14:16:00,88.0,72.0,30.13,WNW,286,2.0,-999.0,60,-99.99,,,-99.99,,2013-07-03 18:16:00,
2013-07-03 14:25:00,89.0,74.0,30.13,NW,317,2.0,-999.0,61,-99.99,,,-99.99,,2013-07-03 18:25:00,
2013-07-03 14:38:00,90.0,74.0,30.12,WSW,248,2.0,-999.0,59,-99.99,,,-99.99,,2013-07-03 18:38:00,
2013-07-03 14:46:00,89.0,73.0,30.12,South,187,2.0,-999.0,59,-99.99,,,-99.99,,2013-07-03 18:46:00,
2013-07-03 14:56:00,89.0,73.0,30.12,South,187,2.0,-999.0,59,-99.99,,,-99.99,,2013-07-03 18:56:00,
2013-07-03 15:04:00,89.0,73.0,30.12,WNW,282,2.0,-999.0,60,-99.99,,,-99.99,,2013-07-03 19:04:00,
2013-07-03 15:30:00,89.0,73.0,30.12,SW,234,0.0,-999.0,59,-99.99,,,-99.99,,2013-07-03 19:30:00,
2013-07-03 15:38:00,90.0,74.0,30.12,West,281,2.0,-999.0,59,-99.99,,,-99.99,,2013-07-03 19:38:00,
2013-07-03 15:47:00,91.0,74.0,30.11,SSW,211,1.0,-999.0,58,-99.99,,,-99.99,,2013-07-03 19:47:00,
2013-07-03 16:06:00,91.0,73.0,30.11,SW,228,2.0,-999.0,56,-99.99,,,-99.99,,2013-07-03 20:06:00,
2013-07-03 16:25:00,90.0,73.0,30.10,SSW,211,1.0,-999.0,57,-99.99,,,-99.99,,2013-07-03 20:25:00,
2013-07-03 16:37:00,91.0,74.0,30.09,SSW,192,2.0,-999.0,57,-99.99,,,-99.99,,2013-07-03 20:37:00,
2013-07-03 16:45:00,91.0,73.0,30.09,South,175,2.0,-999.0,55,-99.99,,,-99.99,,2013-07-03 20:45:00,
2013-07-03 16:55:00,91.0,73.0,30.09,South,175,2.0,-999.0,55,-99.99,,,-99.99,,2013-07-03 20:55:00,
2013-07-03 17:06:00,90.0,72.0,30.09,WSW,256,1.0,-999.0,56,-99.99,,,-99.99,,2013-07-03 21:06:00,
2013-07-03 17:27:00,89.0,73.0,30.09,South,169,1.0,-999.0,59,-99.99,,,-99.99,,2013-07-03 21:27:00,
2013-07-03 17:45:00,88.0,74.0,30.09,WSW,242,0.0,-999.0,64,-99.99,,,-99.99,,2013-07-03 21:45:00,
2013-07-03 18:06:00,88.0,75.0,30.09,WSW,242,0.0,-999.0,66,-99.99,,,-99.99,,2013-07-03 22:06:00,
2013-07-03 18:15:00,87.0,73.0,30.09,West,268,1.0,-999.0,64,-99.99,,,-99.99,,2013-07-03 22:15:00,
2013-07-03 18:26:00,87.0,73.0,30.09,West,268,1.0,-999.0,64,-99.99,,,-99.99,,2013-07-03 22:26:00,
2013-07-03 18:38:00,87.0,73.0,30.09,West,261,1.0,-999.0,63,-99.99,,,-99.99,,2013-07-03 22:38:00,
2013-07-03 18:46:00,88.0,73.0,30.09,WSW,254,1.0,-999.0,61,-99.99,,,-99.99,,2013-07-03 22:46:00,
2013-07-03 18:54:00,88.0,73.0,30.09,WSW,254,1.0,-999.0,61,-99.99,,,-99.99,,2013-07-03 22:54:00,
2013-07-03 19:07:00,88.0,73.0,30.09,West,261,0.0,-999.0,62,-99.99,,,-99.99,,2013-07-03 23:07:00,
2013-07-03 19:25:00,86.0,74.0,30.09,South,175,1.0,-999.0,67,-99.99,,,-99.99,,2013-07-03 23:25:00,
2013-07-03 19:40:00,85.0,73.0,30.09,SSW,198,1.0,-999.0,68,-99.99,,,-99.99,,2013-07-03 23:40:00,
2013-07-03 19:45:00,84.0,73.0,30.09,SSW,192,0.0,-999.0,69,-99.99,,,-99.99,,2013-07-03 23:45:00,
2013-07-03 20:06:00,84.0,73.0,30.09,SSW,210,1.0,-999.0,70,-99.99,,,-99.99,,2013-07-04 00:06:00,
2013-07-03 20:17:00,84.0,73.0,30.09,SSW,210,1.0,-999.0,70,-99.99,,,-99.99,,2013-07-04 00:17:00,
2013-07-03 20:37:00,82.0,72.0,30.10,SSW,202,0.0,-999.0,73,-99.99,,,-99.99,,2013-07-04 00:37:00,
2013-07-03 20:49:00,81.0,72.0,30.10,SSW,198,1.0,-999.0,75,-99.99,,,-99.99,,2013-07-04 00:49:00,
2013-07-03 20:56:00,81.0,72.0,30.10,SSW,198,1.0,-999.0,75,-99.99,,,-99.99,,2013-07-04 00:56:00,
2013-07-03 21:06:00,80.0,72.0,30.11,SSW,212,0.0,-999.0,76,-99.99,,,-99.99,,2013-07-04 01:06:00,
2013-07-03 21:24:00,79.0,72.0,30.12,SSW,212,0.0,-999.0,78,-99.99,,,-99.99,,2013-07-04 01:24:00,
2013-07-03 21:44:00,78.0,72.0,30.12,SSW,212,0.0,-999.0,81,-99.99,,,-99.99,,2013-07-04 01:44:00,
2013-07-03 21:54:00,78.0,72.0,30.12,SSW,212,0.0,-999.0,81,-99.99,,,-99.99,,2013-07-04 01:54:00,
2013-07-03 22:08:00,78.0,72.0,30.12,SSW,202,0.0,-999.0,82,-99.99,,,-99.99,,2013-07-04 02:08:00,
2013-07-03 22:24:00,77.0,71.0,30.13,SSW,200,0.0,-999.0,83,-99.99,,,-99.99,,2013-07-04 02:24:00,
2013-07-03 22:55:00,77.0,72.0,30.12,SSW,207,0.0,-999.0,84,-99.99,,,-99.99,,2013-07-04 02:55:00,
2013-07-03 23:05:00,76.0,71.0,30.12,SSW,207,0.0,-999.0,85,-99.99,,,-99.99,,2013-07-04 03:05:00,
2013-07-03 23:46:00,76.0,72.0,30.13,SSW,196,0.0,-999.0,86,-99.99,,,-99.99,,2013-07-04 03:46:00,
2013-07-03 23:56:00,76.0,72.0,30.13,SSW,196,0.0,-999.0,86,-99.99,,,-99.99,,2013-07-04 03:56:00,